createdAt,value
2022-08-11T00:00:37.185Z,15.72
2022-08-11T00:02:49.323Z,15.66
2022-08-11T00:05:02.350Z,15.64
2022-08-11T00:07:14.428Z,15.59
2022-08-11T00:09:27.499Z,15.54
2022-08-11T00:11:39.589Z,15.49
2022-08-11T00:13:52.654Z,15.46
2022-08-11T00:16:03.772Z,15.42
2022-08-11T00:18:16.155Z,15.39
2022-08-11T00:20:28.249Z,15.39
2022-08-11T00:22:40.586Z,15.36
2022-08-11T00:24:56.037Z,15.36
2022-08-11T00:27:04.477Z,15.36
2022-08-11T00:29:16.561Z,15.33
2022-08-11T00:31:29.775Z,15.31
2022-08-11T00:33:44.814Z,15.27
2022-08-11T00:35:57.678Z,15.23
2022-08-11T00:38:06.685Z,15.19
2022-08-11T00:40:19.094Z,15.17
2022-08-11T00:42:30.343Z,15.13
2022-08-11T00:44:42.448Z,15.09
2022-08-11T00:46:55.531Z,15.05
2022-08-11T00:49:08.543Z,15.02
2022-08-11T00:51:19.673Z,14.98
2022-08-11T00:53:31.767Z,14.94
2022-08-11T00:55:47.219Z,14.90
2022-08-11T00:57:55.967Z,14.87
2022-08-11T01:00:08.013Z,14.81
2022-08-11T01:02:20.091Z,14.74
2022-08-11T01:04:32.182Z,14.72
2022-08-11T01:06:45.153Z,14.69
2022-08-11T01:08:56.379Z,14.68
2022-08-11T01:11:08.448Z,14.67
2022-08-11T01:13:21.502Z,14.64
2022-08-11T01:15:33.593Z,14.61
2022-08-11T01:17:45.683Z,14.57
2022-08-11T01:20:44.808Z,14.57
2022-08-11T01:20:58.715Z,14.54
2022-08-11T01:23:09.817Z,14.54
2022-08-11T01:25:21.927Z,14.53
2022-08-11T01:27:33.977Z,14.50
2022-08-11T01:29:48.998Z,14.50
2022-08-11T01:31:58.139Z,14.49
2022-08-11T01:34:10.222Z,14.47
2022-08-11T01:36:23.303Z,14.46
2022-08-11T01:38:35.388Z,14.42
2022-08-11T01:40:47.445Z,14.37
2022-08-11T01:42:59.538Z,14.37
2022-08-11T01:45:11.634Z,14.34
2022-08-11T01:47:23.712Z,14.34
2022-08-11T01:50:07.871Z,14.31
2022-08-11T01:50:36.782Z,14.29
2022-08-11T01:52:47.882Z,14.31
2022-08-11T01:54:59.970Z,14.25
2022-08-11T01:57:12.027Z,14.25
2022-08-11T01:59:24.115Z,14.24
2022-08-11T02:01:37.189Z,14.19
2022-08-11T02:03:50.142Z,14.13
2022-08-11T02:06:01.568Z,14.12
2022-08-11T02:08:13.421Z,14.12
2022-08-11T02:10:35.181Z,14.10
2022-08-11T02:12:38.718Z,14.04
2022-08-11T02:15:04.313Z,14.02
2022-08-11T02:15:51.635Z,13.99
2022-08-11T02:18:03.721Z,13.99
2022-08-11T02:20:15.830Z,13.96
2022-08-11T02:22:27.876Z,13.92
2022-08-11T02:24:40.948Z,13.91
2022-08-11T02:26:53.031Z,13.88
2022-08-11T02:29:05.110Z,13.81
2022-08-11T02:32:14.699Z,13.77
2022-08-11T02:32:28.398Z,13.74
2022-08-11T02:33:18.466Z,13.73
2022-08-11T02:35:29.543Z,13.74
2022-08-11T02:37:41.632Z,13.71
2022-08-11T02:39:54.705Z,13.70
2022-08-11T02:42:06.814Z,13.67
2022-08-11T02:43:07.771Z,13.65
2022-08-11T02:45:18.857Z,13.63
2022-08-11T02:47:30.957Z,13.62
2022-08-11T02:49:43.015Z,13.59
2022-08-11T02:51:55.107Z,13.59
2022-08-11T02:54:07.177Z,13.54
2022-08-11T02:56:19.264Z,13.52
2022-08-11T02:58:31.365Z,13.52
2022-08-11T03:00:43.435Z,13.49
2022-08-11T03:02:56.512Z,13.47
2022-08-11T03:05:08.579Z,13.44
2022-08-11T03:07:29.199Z,13.41
2022-08-11T03:09:33.627Z,13.38
2022-08-11T03:11:45.796Z,13.32
2022-08-11T03:13:56.946Z,13.30
2022-08-11T03:16:09.021Z,13.29
2022-08-11T03:18:22.244Z,13.22
2022-08-11T03:20:38.331Z,13.18
2022-08-11T03:22:46.550Z,13.17
2022-08-11T03:24:58.630Z,13.15
2022-08-11T03:27:10.715Z,13.09
2022-08-11T03:29:24.889Z,13.07
2022-08-11T03:31:34.893Z,13.02
2022-08-11T03:33:46.946Z,13.00
2022-08-11T03:35:59.042Z,13.00
2022-08-11T03:38:11.115Z,12.99
2022-08-11T03:40:23.488Z,13.00
2022-08-11T03:42:36.740Z,12.99
2022-08-11T03:44:49.644Z,12.99
2022-08-11T03:47:01.736Z,12.99
2022-08-11T03:49:13.808Z,12.97
2022-08-11T03:51:25.890Z,12.93
2022-08-11T03:53:38.008Z,12.92
2022-08-11T03:55:50.060Z,12.88
2022-08-11T03:58:02.141Z,12.92
2022-08-11T04:00:14.219Z,12.92
2022-08-11T04:02:26.834Z,12.92
2022-08-11T04:04:38.392Z,12.95
2022-08-11T04:06:50.456Z,12.95
2022-08-11T04:09:02.543Z,12.95
2022-08-11T04:11:16.055Z,12.97
2022-08-11T04:13:26.691Z,12.96
2022-08-11T04:15:39.829Z,12.97
2022-08-11T04:17:52.790Z,13.00
2022-08-11T04:20:03.928Z,13.04
2022-08-11T04:22:16.018Z,13.07
2022-08-11T04:24:35.274Z,13.12
2022-08-11T04:26:40.224Z,13.15
2022-08-11T04:28:52.293Z,13.22
2022-08-11T04:31:05.456Z,13.27
2022-08-11T04:33:16.440Z,13.32
2022-08-11T04:35:28.547Z,13.36
2022-08-11T04:37:40.622Z,13.38
2022-08-11T04:39:52.715Z,13.43
2022-08-11T04:42:04.766Z,13.51
2022-08-11T04:44:17.687Z,13.58
2022-08-11T04:46:28.913Z,13.65
2022-08-11T04:48:41.052Z,13.71
2022-08-11T04:51:09.717Z,13.81
2022-08-11T04:51:54.100Z,13.88
2022-08-11T04:54:05.220Z,13.99
2022-08-11T04:56:18.780Z,14.10
2022-08-11T04:58:31.709Z,14.24
2022-08-11T05:00:42.938Z,14.38
2022-08-11T05:02:55.020Z,14.52
2022-08-11T05:05:07.129Z,14.67
2022-08-11T05:07:19.172Z,14.84
2022-08-11T05:09:31.251Z,15.02
2022-08-11T05:11:43.331Z,15.21
2022-08-11T05:13:55.416Z,15.42
2022-08-11T05:16:07.512Z,15.64
2022-08-11T05:18:19.579Z,15.81
2022-08-11T05:20:32.654Z,16.00
2022-08-11T05:22:45.571Z,16.15
2022-08-11T05:24:56.811Z,16.34
2022-08-11T05:27:13.583Z,16.53
2022-08-11T05:29:21.222Z,16.78
2022-08-11T05:31:33.076Z,16.98
2022-08-11T05:33:45.163Z,17.14
2022-08-11T05:36:01.800Z,17.30
2022-08-11T05:38:09.334Z,17.43
2022-08-11T05:40:21.402Z,17.59
2022-08-11T05:42:33.495Z,17.84
2022-08-11T05:44:45.572Z,18.03
2022-08-11T05:46:57.655Z,18.17
2022-08-11T05:49:10.758Z,18.42
2022-08-11T05:51:30.582Z,18.70
2022-08-11T05:53:45.963Z,18.98
2022-08-11T05:54:36.274Z,19.10
2022-08-11T05:56:47.929Z,19.32
2022-08-11T05:59:00.034Z,19.42
2022-08-11T06:01:12.171Z,19.50
2022-08-11T06:03:24.205Z,19.78
2022-08-11T06:05:37.327Z,19.93
2022-08-11T06:07:50.221Z,20.09
2022-08-11T06:10:02.592Z,20.24
2022-08-11T06:12:13.910Z,20.47
2022-08-11T06:14:25.919Z,20.62
2022-08-11T06:16:38.049Z,20.62
2022-08-11T06:18:51.097Z,20.66
2022-08-11T06:21:03.145Z,20.89
2022-08-11T06:23:15.249Z,21.13
2022-08-11T06:25:27.318Z,21.24
2022-08-11T06:27:40.412Z,21.38
2022-08-11T06:29:54.944Z,21.35
2022-08-11T06:33:07.714Z,21.45
2022-08-11T06:35:19.634Z,21.54
2022-08-11T06:37:36.192Z,21.59
2022-08-11T06:39:43.873Z,21.61
2022-08-11T06:41:55.870Z,21.69
2022-08-11T06:44:07.979Z,21.79
2022-08-11T06:46:26.924Z,21.78
2022-08-11T06:48:33.098Z,21.82
2022-08-11T06:50:45.181Z,21.91
2022-08-11T06:52:57.278Z,21.94
2022-08-11T06:55:14.106Z,21.95
2022-08-11T06:57:30.308Z,21.94
2022-08-11T06:59:33.730Z,21.95
2022-08-11T07:01:46.255Z,22.19
2022-08-11T07:03:57.714Z,22.50
2022-08-11T07:06:09.823Z,22.57
2022-08-11T07:08:34.346Z,22.94
2022-08-11T07:10:33.975Z,23.32
2022-08-11T07:12:46.053Z,23.60
2022-08-11T07:15:00.491Z,23.57
2022-08-11T07:17:10.239Z,23.40
2022-08-11T07:19:22.289Z,23.32
2022-08-11T07:22:00.528Z,23.35
2022-08-11T07:22:35.374Z,23.34
2022-08-11T07:24:59.460Z,23.24
2022-08-11T07:25:48.432Z,23.24
2022-08-11T07:27:59.867Z,23.52
2022-08-11T07:30:12.618Z,23.82
2022-08-11T07:32:24.696Z,23.75
2022-08-11T07:34:36.789Z,23.71
2022-08-11T07:36:48.882Z,23.86
2022-08-11T07:39:00.988Z,24.01
2022-08-11T07:41:14.543Z,24.07
2022-08-11T07:43:26.631Z,24.12
2022-08-11T07:45:38.707Z,24.29
2022-08-11T07:47:50.791Z,24.37
2022-08-11T07:50:02.891Z,24.41
2022-08-11T07:52:14.941Z,24.47
2022-08-11T07:54:28.127Z,24.49
2022-08-11T07:56:55.522Z,24.56
2022-08-11T07:58:53.144Z,24.61
2022-08-11T08:01:09.940Z,24.79
2022-08-11T08:03:16.353Z,24.98
2022-08-11T08:05:28.415Z,25.15
2022-08-11T08:07:40.521Z,25.19
2022-08-11T08:09:52.573Z,25.22
2022-08-11T08:12:04.676Z,25.30
2022-08-11T08:14:16.749Z,25.31
2022-08-11T08:16:28.828Z,25.39
2022-08-11T08:18:40.920Z,25.57
2022-08-11T08:20:53.857Z,25.72
2022-08-11T08:23:05.094Z,25.94
2022-08-11T08:25:18.269Z,26.39
2022-08-11T08:27:31.005Z,26.65
2022-08-11T08:29:42.337Z,26.57
2022-08-11T08:31:54.411Z,26.35
2022-08-11T08:34:06.497Z,26.32
2022-08-11T08:36:18.557Z,26.36
2022-08-11T08:38:30.646Z,26.47
2022-08-11T08:40:42.734Z,26.77
2022-08-11T08:42:55.793Z,26.64
2022-08-11T08:45:07.913Z,26.84
2022-08-11T08:47:41.552Z,26.74
2022-08-11T08:48:20.936Z,26.68
2022-08-11T08:50:32.064Z,26.89
2022-08-11T08:52:44.225Z,26.99
2022-08-11T08:54:57.699Z,27.20
2022-08-11T08:57:13.275Z,27.58
2022-08-11T08:59:47.627Z,27.59
2022-08-11T09:00:34.458Z,27.89
2022-08-11T09:02:47.248Z,28.21
2022-08-11T09:05:00.225Z,28.06
2022-08-11T09:07:13.440Z,28.47
2022-08-11T09:09:26.504Z,28.53
2022-08-11T09:11:38.591Z,28.68
2022-08-11T09:14:05.044Z,28.63
2022-08-11T09:14:52.635Z,28.77
2022-08-11T09:17:03.738Z,28.91
2022-08-11T09:19:15.859Z,28.84
2022-08-11T09:21:48.297Z,28.81
2022-08-11T09:25:53.937Z,29.47
2022-08-11T09:28:05.160Z,29.00
2022-08-11T09:30:17.246Z,29.38
2022-08-11T09:32:29.335Z,29.59
2022-08-11T09:34:44.266Z,29.94
2022-08-11T09:36:55.484Z,30.16
2022-08-11T09:39:08.673Z,30.21
2022-08-11T09:41:20.638Z,30.07
2022-08-11T09:43:32.724Z,30.00
2022-08-11T09:45:44.815Z,29.94
2022-08-11T09:47:56.930Z,29.62
2022-08-11T09:50:09.090Z,29.74
2022-08-11T09:52:22.534Z,29.94
2022-08-11T09:54:34.646Z,30.30
2022-08-11T09:56:47.762Z,30.45
2022-08-11T09:58:59.772Z,30.62
2022-08-11T10:01:11.959Z,30.72
2022-08-11T10:03:23.946Z,30.83
2022-08-11T10:05:36.067Z,30.81
2022-08-11T10:07:50.171Z,30.67
2022-08-11T10:10:01.677Z,30.76
2022-08-11T10:12:13.745Z,30.59
2022-08-11T10:14:33.130Z,30.71
2022-08-11T10:16:37.909Z,30.67
2022-08-11T10:18:50.022Z,30.94
2022-08-11T10:21:02.084Z,31.39
2022-08-11T10:23:16.595Z,31.50
2022-08-11T10:25:59.592Z,31.13
2022-08-11T10:28:28.841Z,31.06
2022-08-11T10:29:02.430Z,31.28
2022-08-11T10:29:44.526Z,31.40
2022-08-11T10:31:57.968Z,31.72
2022-08-11T10:34:04.794Z,31.33
2022-08-11T10:36:17.107Z,31.33
2022-08-11T10:38:29.944Z,31.40
2022-08-11T10:40:41.222Z,31.05
2022-08-11T10:42:57.708Z,31.28
2022-08-11T10:45:05.403Z,31.49
2022-08-11T10:47:17.512Z,31.67
2022-08-11T10:49:30.538Z,31.35
2022-08-11T10:51:50.698Z,31.01
2022-08-11T10:53:54.704Z,31.11
2022-08-11T10:56:06.832Z,31.33
2022-08-11T10:58:21.395Z,31.49
2022-08-11T11:00:33.467Z,31.79
2022-08-11T11:02:45.578Z,31.58
2022-08-11T11:03:46.531Z,31.77
2022-08-11T11:06:13.271Z,31.68
2022-08-11T11:06:59.606Z,31.70
2022-08-11T11:09:10.700Z,31.68
2022-08-11T11:11:22.764Z,31.93
2022-08-11T11:12:22.774Z,31.48
2022-08-11T11:14:35.820Z,31.55
2022-08-11T11:15:36.800Z,31.79
2022-08-11T11:17:49.981Z,32.11
2022-08-11T11:20:01.508Z,31.99
2022-08-11T11:21:03.309Z,32.07
2022-08-11T11:23:13.547Z,31.73
2022-08-11T11:25:26.627Z,31.73
2022-08-11T11:27:46.332Z,31.27
2022-08-11T11:29:52.822Z,31.61
2022-08-11T11:32:04.876Z,31.79
2022-08-11T11:34:17.955Z,32.00
2022-08-11T11:36:30.040Z,31.95
2022-08-11T11:38:42.153Z,32.29
2022-08-11T11:40:54.249Z,32.52
2022-08-11T11:43:06.309Z,32.70
2022-08-11T11:45:23.342Z,32.54
2022-08-11T11:47:30.462Z,32.32
2022-08-11T11:49:45.964Z,32.13
2022-08-11T11:51:58.073Z,32.57
2022-08-11T11:54:11.116Z,32.84
2022-08-11T11:56:24.019Z,32.47
2022-08-11T11:58:35.273Z,32.33
2022-08-11T12:00:47.363Z,32.80
2022-08-11T12:02:59.607Z,33.08
2022-08-11T12:05:11.561Z,33.29
2022-08-11T12:08:52.490Z,32.80
2022-08-11T12:12:36.239Z,32.61
2022-08-11T12:14:48.320Z,32.20
2022-08-11T12:17:00.701Z,31.84
2022-08-11T12:19:16.121Z,31.62
2022-08-11T12:21:50.974Z,31.72
2022-08-11T12:24:04.547Z,31.23
2022-08-11T12:26:26.986Z,31.30
2022-08-11T12:27:18.119Z,31.23
2022-08-11T12:31:55.634Z,31.21
2022-08-11T12:34:10.761Z,30.61
2022-08-11T12:36:33.934Z,30.53
2022-08-11T12:43:56.818Z,30.93
2022-08-11T12:46:39.982Z,30.89
2022-08-11T12:51:32.239Z,31.08
2022-08-11T12:52:33.183Z,30.98
2022-08-11T12:56:21.688Z,31.23
2022-08-11T12:58:50.150Z,31.33
2022-08-11T13:01:04.266Z,31.15
2022-08-11T13:03:20.327Z,30.94
2022-08-11T13:06:01.262Z,30.99
2022-08-11T13:09:04.302Z,31.04
2022-08-11T13:11:16.360Z,31.20
2022-08-11T13:13:55.922Z,31.23
2022-08-11T13:14:30.284Z,31.26
2022-08-11T13:17:58.856Z,31.15
2022-08-11T13:20:11.950Z,31.12
2022-08-11T13:22:24.004Z,31.06
2022-08-11T13:24:39.016Z,30.86
2022-08-11T13:26:50.739Z,30.74
2022-08-11T13:29:02.052Z,30.80
2022-08-11T13:31:14.151Z,30.81
2022-08-11T13:33:27.208Z,30.80
2022-08-11T13:35:39.292Z,30.61
2022-08-11T13:38:19.703Z,30.62
2022-08-11T13:38:53.375Z,30.69
2022-08-11T13:41:03.437Z,30.83
2022-08-11T13:43:15.508Z,30.83
2022-08-11T13:45:27.589Z,30.76
2022-08-11T13:47:40.753Z,30.69
2022-08-11T13:49:52.769Z,30.62
2022-08-11T13:52:04.877Z,30.59
2022-08-11T13:54:18.911Z,30.56
2022-08-11T13:56:30.964Z,30.64
2022-08-11T13:58:43.370Z,30.74
2022-08-11T14:00:55.144Z,30.75
2022-08-11T14:03:10.846Z,30.75
2022-08-11T14:05:23.096Z,30.69
2022-08-11T14:07:37.843Z,30.61
2022-08-11T14:09:56.495Z,30.59
2022-08-11T14:12:21.920Z,30.46
2022-08-11T14:13:06.194Z,30.33
2022-08-11T14:15:17.304Z,30.37
2022-08-11T14:17:44.198Z,30.45
2022-08-11T14:18:30.345Z,30.45
2022-08-11T14:20:41.545Z,30.47
2022-08-11T14:22:53.518Z,30.33
2022-08-11T14:25:06.447Z,30.27
2022-08-11T14:28:25.930Z,30.18
2022-08-11T14:28:31.781Z,30.18
2022-08-11T14:29:20.961Z,30.21
2022-08-11T14:31:32.094Z,30.15
2022-08-11T14:33:59.662Z,30.09
2022-08-11T14:35:56.195Z,30.18
2022-08-11T14:38:09.303Z,30.31
2022-08-11T14:40:22.191Z,30.31
2022-08-11T14:42:33.466Z,30.34
2022-08-11T14:44:46.499Z,30.46
2022-08-11T14:46:58.588Z,30.47
2022-08-11T14:49:11.952Z,30.69
2022-08-11T14:52:54.167Z,30.74
2022-08-11T14:55:06.230Z,30.74
2022-08-11T14:57:19.330Z,30.83
2022-08-11T15:00:10.353Z,30.75
2022-08-11T15:05:33.187Z,30.64
2022-08-11T15:07:48.955Z,30.59
2022-08-11T15:11:21.073Z,30.47
2022-08-11T15:15:25.390Z,30.38
2022-08-11T15:22:38.346Z,30.29
2022-08-11T15:30:32.784Z,30.71
2022-08-11T15:32:52.041Z,30.75
2022-08-11T15:45:01.141Z,30.56
2022-08-11T15:46:32.442Z,30.61
2022-08-11T15:48:49.408Z,30.65
2022-08-11T15:51:47.424Z,31.73
2022-08-11T15:54:07.085Z,33.82
2022-08-11T16:14:23.343Z,34.53
2022-08-11T16:16:36.903Z,34.58
2022-08-11T16:26:38.769Z,35.52
2022-08-11T16:27:02.261Z,35.50
2022-08-11T16:27:09.080Z,35.30
2022-08-11T16:27:53.338Z,35.18
2022-08-11T16:30:10.538Z,35.44
2022-08-11T16:32:21.090Z,35.77
2022-08-11T16:34:34.157Z,35.69
2022-08-11T16:36:46.258Z,34.76
2022-08-11T16:38:58.610Z,34.42
2022-08-11T16:41:11.910Z,34.32
2022-08-11T16:43:23.761Z,33.94
2022-08-11T16:45:35.840Z,33.70
2022-08-11T16:48:03.525Z,32.67
2022-08-11T16:48:49.742Z,32.21
2022-08-11T16:50:59.992Z,31.65
2022-08-11T16:53:13.480Z,30.93
2022-08-11T16:55:52.029Z,30.26
2022-08-11T16:56:26.113Z,30.11
2022-08-11T16:58:38.035Z,29.82
2022-08-11T17:00:49.324Z,29.65
2022-08-11T17:03:02.217Z,29.40
2022-08-11T17:05:13.433Z,29.23
2022-08-11T17:07:50.105Z,29.01
2022-08-11T17:08:27.352Z,28.96
2022-08-11T17:10:52.918Z,28.90
2022-08-11T17:11:38.561Z,28.85
2022-08-11T17:13:49.681Z,28.77
2022-08-11T17:16:01.743Z,28.73
2022-08-11T17:18:15.742Z,28.63
2022-08-11T17:20:42.468Z,28.59
2022-08-11T17:22:38.950Z,28.44
2022-08-11T17:24:51.908Z,28.32
2022-08-11T17:27:03.108Z,28.25
2022-08-11T17:29:15.208Z,28.23
2022-08-11T17:32:14.652Z,28.11
2022-08-11T17:35:32.423Z,27.94
2022-08-11T17:46:02.302Z,27.66
2022-08-11T17:50:17.209Z,27.57
